BAW641 LGAV-HEAX
Flight info
| Callsign | BAW641 |
|---|---|
| Flight time | 1h 26m |
| Altitude | 37000 |
| Route | DCT KEA UL607 PAXIS L607 NABSI L617 NOZ DCT |
| Aircraft | A320/M-SDE3FGHIKRWXY/S |
Departure
| Time | 2026-04-24 12:37 |
|---|---|
| Airport | Athens Eleftherios Venizelos International Airport (LGAV) |
Arrival
| Time | 2026-04-24 14:04 |
|---|---|
| Airport | Alexandria International Airport (HEAX) |
| Time | Latitude | Longitude | Altitude | Speed | Heading |
|---|---|---|---|---|---|
| 2026-04-24 12:11 | 37.93412 | 23.94653 | 301 ft | 0 kts | 307° |
| 2026-04-24 12:30 | 37.93402 | 23.94670 | 301 ft | 2 kts | 307° |
| 2026-04-24 12:31 | 37.93392 | 23.94687 | 302 ft | 2 kts | 307° |
| 2026-04-24 12:31 | 37.93382 | 23.94704 | 302 ft | 2 kts | 307° |
| 2026-04-24 12:31 | 37.93374 | 23.94722 | 301 ft | 2 kts | 252° |
| 2026-04-24 12:31 | 37.93380 | 23.94737 | 301 ft | 0 kts | 198° |
| 2026-04-24 12:32 | 37.93378 | 23.94736 | 301 ft | 0 kts | 198° |
| 2026-04-24 12:33 | 37.93372 | 23.94733 | 301 ft | 3 kts | 197° |
| 2026-04-24 12:34 | 37.93340 | 23.94735 | 301 ft | 6 kts | 161° |
| 2026-04-24 12:34 | 37.93299 | 23.94768 | 303 ft | 8 kts | 163° |
| 2026-04-24 12:34 | 37.93237 | 23.94744 | 302 ft | 11 kts | 214° |
| 2026-04-24 12:34 | 37.93171 | 23.94682 | 301 ft | 13 kts | 218° |
| 2026-04-24 12:35 | 37.93095 | 23.94606 | 303 ft | 15 kts | 218° |
| 2026-04-24 12:35 | 37.93006 | 23.94523 | 303 ft | 17 kts | 215° |
| 2026-04-24 12:35 | 37.92903 | 23.94430 | 302 ft | 19 kts | 216° |
| 2026-04-24 12:35 | 37.92792 | 23.94319 | 303 ft | 22 kts | 217° |
| 2026-04-24 12:36 | 37.92662 | 23.94206 | 302 ft | 23 kts | 200° |
| 2026-04-24 12:36 | 37.92541 | 23.94314 | 305 ft | 23 kts | 129° |
| 2026-04-24 12:36 | 37.92519 | 23.94480 | 307 ft | 22 kts | 51° |
| 2026-04-24 12:36 | 37.92731 | 23.94692 | 302 ft | 71 kts | 37° |
| 2026-04-24 12:37 | 37.93296 | 23.95232 | 292 ft | 129 kts | 37° |
| 2026-04-24 12:37 | 37.94141 | 23.96028 | 394 ft | 163 kts | 38° |
| 2026-04-24 12:37 | 37.95025 | 23.96873 | 976 ft | 164 kts | 39° |
| 2026-04-24 12:37 | 37.95949 | 23.97789 | 1516 ft | 173 kts | 40° |
| 2026-04-24 12:38 | 37.96954 | 23.98769 | 1879 ft | 194 kts | 38° |
| 2026-04-24 12:38 | 37.98103 | 23.99864 | 2195 ft | 219 kts | 38° |
| 2026-04-24 12:38 | 37.99366 | 24.01064 | 2872 ft | 231 kts | 36° |
| 2026-04-24 12:39 | 38.03282 | 24.04811 | 5630 ft | 239 kts | 36° |
| 2026-04-24 12:39 | 38.04616 | 24.06094 | 6530 ft | 241 kts | 37° |
| 2026-04-24 12:39 | 38.05960 | 24.07389 | 7381 ft | 245 kts | 37° |
| 2026-04-24 12:40 | 38.07328 | 24.08714 | 8192 ft | 250 kts | 39° |
| 2026-04-24 12:40 | 38.08457 | 24.10414 | 8969 ft | 256 kts | 60° |
| 2026-04-24 12:40 | 38.08898 | 24.11812 | 9479 ft | 261 kts | 75° |
| 2026-04-24 12:40 | 38.09014 | 24.14190 | 9960 ft | 281 kts | 98° |
| 2026-04-24 12:41 | 38.08401 | 24.16620 | 10355 ft | 302 kts | 114° |
| 2026-04-24 12:41 | 38.07183 | 24.18921 | 10569 ft | 328 kts | 133° |
| 2026-04-24 12:41 | 38.05316 | 24.20691 | 10980 ft | 343 kts | 153° |
| 2026-04-24 12:41 | 38.03017 | 24.21577 | 11642 ft | 349 kts | 171° |
| 2026-04-24 12:42 | 38.00604 | 24.22018 | 12354 ft | 351 kts | 172° |
| 2026-04-24 12:42 | 37.98173 | 24.22447 | 13041 ft | 355 kts | 173° |
| 2026-04-24 12:42 | 37.95713 | 24.22876 | 13675 ft | 360 kts | 173° |
| 2026-04-24 12:42 | 37.93219 | 24.23308 | 14363 ft | 362 kts | 174° |
| 2026-04-24 12:43 | 37.90721 | 24.23740 | 15094 ft | 362 kts | 175° |
| 2026-04-24 12:43 | 37.88221 | 24.24178 | 15797 ft | 363 kts | 176° |
| 2026-04-24 12:43 | 37.85713 | 24.24614 | 16430 ft | 364 kts | 176° |
| 2026-04-24 12:43 | 37.83231 | 24.25048 | 17053 ft | 366 kts | 177° |
| 2026-04-24 12:44 | 37.80694 | 24.25493 | 17670 ft | 368 kts | 178° |
| 2026-04-24 12:44 | 37.78149 | 24.25940 | 18274 ft | 370 kts | 178° |
| 2026-04-24 12:44 | 37.75590 | 24.26388 | 18902 ft | 373 kts | 178° |
| 2026-04-24 12:44 | 37.73012 | 24.26837 | 19526 ft | 376 kts | 178° |
| 2026-04-24 12:45 | 37.70413 | 24.27290 | 20112 ft | 379 kts | 178° |
| 2026-04-24 12:45 | 37.67792 | 24.27746 | 20709 ft | 382 kts | 178° |
| 2026-04-24 12:45 | 37.65152 | 24.28207 | 21284 ft | 385 kts | 178° |
| 2026-04-24 12:45 | 37.62491 | 24.28675 | 21834 ft | 387 kts | 178° |
| 2026-04-24 12:46 | 37.59818 | 24.29146 | 22381 ft | 389 kts | 178° |
| 2026-04-24 12:46 | 37.57136 | 24.29735 | 22891 ft | 396 kts | 171° |
| 2026-04-24 12:46 | 37.54514 | 24.30933 | 23400 ft | 406 kts | 160° |
| 2026-04-24 12:46 | 37.52047 | 24.32735 | 23873 ft | 413 kts | 153° |
| 2026-04-24 12:47 | 37.49602 | 24.34672 | 24340 ft | 415 kts | 153° |
| 2026-04-24 12:47 | 37.47156 | 24.36605 | 24778 ft | 418 kts | 153° |
| 2026-04-24 12:47 | 37.44682 | 24.38555 | 25198 ft | 420 kts | 153° |
| 2026-04-24 12:47 | 37.42230 | 24.40480 | 25620 ft | 422 kts | 153° |
| 2026-04-24 12:48 | 37.39734 | 24.42435 | 26017 ft | 424 kts | 154° |
| 2026-04-24 12:48 | 37.37225 | 24.44398 | 26414 ft | 426 kts | 154° |
| 2026-04-24 12:48 | 37.34700 | 24.46372 | 26782 ft | 428 kts | 154° |
| 2026-04-24 12:48 | 37.32166 | 24.48352 | 27148 ft | 431 kts | 154° |
| 2026-04-24 12:49 | 37.29613 | 24.50348 | 27536 ft | 432 kts | 154° |
| 2026-04-24 12:49 | 37.27056 | 24.52349 | 27919 ft | 434 kts | 154° |
| 2026-04-24 12:49 | 37.24489 | 24.54355 | 28282 ft | 436 kts | 154° |
| 2026-04-24 12:49 | 37.21906 | 24.56373 | 28631 ft | 438 kts | 154° |
| 2026-04-24 12:50 | 37.19313 | 24.58394 | 28973 ft | 440 kts | 154° |
| 2026-04-24 12:50 | 37.16708 | 24.60420 | 29303 ft | 441 kts | 154° |
| 2026-04-24 12:50 | 37.14092 | 24.62453 | 29643 ft | 443 kts | 154° |
| 2026-04-24 12:50 | 37.11469 | 24.64491 | 29967 ft | 444 kts | 154° |
| 2026-04-24 12:51 | 37.08839 | 24.66537 | 30298 ft | 445 kts | 154° |
| 2026-04-24 12:51 | 37.06216 | 24.68576 | 30723 ft | 444 kts | 155° |
| 2026-04-24 12:51 | 37.03625 | 24.70586 | 31139 ft | 443 kts | 155° |
| 2026-04-24 12:51 | 37.01006 | 24.72614 | 31544 ft | 442 kts | 155° |
| 2026-04-24 12:52 | 36.98395 | 24.74636 | 31946 ft | 441 kts | 155° |
| 2026-04-24 12:52 | 36.95784 | 24.76654 | 32347 ft | 441 kts | 155° |
| 2026-04-24 12:52 | 36.93164 | 24.78675 | 32743 ft | 440 kts | 155° |
| 2026-04-24 12:52 | 36.90564 | 24.80683 | 33147 ft | 439 kts | 155° |
| 2026-04-24 12:53 | 36.87970 | 24.82692 | 33544 ft | 438 kts | 155° |
| 2026-04-24 12:53 | 36.85378 | 24.84700 | 33921 ft | 438 kts | 156° |
| 2026-04-24 12:53 | 36.82794 | 24.86696 | 34300 ft | 437 kts | 156° |
| 2026-04-24 12:53 | 36.80208 | 24.88691 | 34660 ft | 437 kts | 155° |
| 2026-04-24 12:54 | 36.77618 | 24.90689 | 34976 ft | 437 kts | 155° |
| 2026-04-24 12:54 | 36.75033 | 24.92683 | 35280 ft | 438 kts | 155° |
| 2026-04-24 12:54 | 36.72444 | 24.94679 | 35566 ft | 438 kts | 155° |
| 2026-04-24 12:54 | 36.69886 | 24.96650 | 35853 ft | 438 kts | 155° |
| 2026-04-24 12:55 | 36.67296 | 24.98645 | 36146 ft | 438 kts | 155° |
| 2026-04-24 12:55 | 36.64697 | 25.00644 | 36418 ft | 438 kts | 155° |
| 2026-04-24 12:55 | 36.62103 | 25.02635 | 36684 ft | 439 kts | 154° |
| 2026-04-24 12:55 | 36.59498 | 25.04630 | 36913 ft | 438 kts | 154° |
| 2026-04-24 12:56 | 36.56906 | 25.06610 | 36999 ft | 437 kts | 154° |
| 2026-04-24 12:56 | 36.51721 | 25.10565 | 36997 ft | 437 kts | 154° |
| 2026-04-24 12:57 | 36.46544 | 25.14519 | 36999 ft | 437 kts | 154° |
| 2026-04-24 12:57 | 36.41361 | 25.18473 | 36999 ft | 437 kts | 155° |
| 2026-04-24 12:58 | 36.36189 | 25.22406 | 36999 ft | 436 kts | 155° |
| 2026-04-24 12:58 | 36.31035 | 25.26317 | 37001 ft | 436 kts | 155° |
| 2026-04-24 12:59 | 36.25862 | 25.30247 | 37005 ft | 437 kts | 155° |
| 2026-04-24 12:59 | 36.20682 | 25.34177 | 37004 ft | 436 kts | 155° |
| 2026-04-24 13:00 | 36.15500 | 25.38088 | 37006 ft | 436 kts | 155° |
| 2026-04-24 13:00 | 36.10328 | 25.41990 | 37006 ft | 436 kts | 155° |
| 2026-04-24 13:01 | 36.05149 | 25.45896 | 37008 ft | 436 kts | 155° |
| 2026-04-24 13:01 | 35.99970 | 25.49791 | 37010 ft | 436 kts | 155° |
| 2026-04-24 13:02 | 35.94796 | 25.53679 | 37013 ft | 435 kts | 156° |
| 2026-04-24 13:02 | 35.89620 | 25.57571 | 37012 ft | 435 kts | 156° |
| 2026-04-24 13:03 | 35.84446 | 25.61448 | 37011 ft | 435 kts | 156° |
| 2026-04-24 13:03 | 35.79296 | 25.65296 | 37009 ft | 436 kts | 156° |
| 2026-04-24 13:04 | 35.74112 | 25.69166 | 37007 ft | 436 kts | 156° |
| 2026-04-24 13:04 | 35.68935 | 25.73031 | 37007 ft | 435 kts | 156° |
| 2026-04-24 13:05 | 35.63763 | 25.76888 | 37006 ft | 435 kts | 156° |
| 2026-04-24 13:05 | 35.58591 | 25.80738 | 37006 ft | 434 kts | 156° |
| 2026-04-24 13:06 | 35.53412 | 25.84580 | 37006 ft | 434 kts | 156° |
| 2026-04-24 13:06 | 35.48246 | 25.88417 | 37006 ft | 434 kts | 156° |
| 2026-04-24 13:07 | 35.43072 | 25.92244 | 37003 ft | 434 kts | 156° |
| 2026-04-24 13:07 | 35.37898 | 25.96073 | 37000 ft | 434 kts | 156° |
| 2026-04-24 13:08 | 35.32719 | 25.99899 | 36999 ft | 434 kts | 156° |
| 2026-04-24 13:08 | 35.27547 | 26.03710 | 36999 ft | 434 kts | 156° |
| 2026-04-24 13:09 | 35.19775 | 26.09422 | 36998 ft | 434 kts | 156° |
| 2026-04-24 13:09 | 35.14599 | 26.13221 | 36999 ft | 434 kts | 156° |
| 2026-04-24 13:10 | 35.09459 | 26.16994 | 36995 ft | 433 kts | 156° |
| 2026-04-24 13:10 | 35.04488 | 26.21330 | 36991 ft | 442 kts | 147° |
| 2026-04-24 13:11 | 34.99847 | 26.26168 | 36986 ft | 441 kts | 147° |
| 2026-04-24 13:11 | 34.95182 | 26.31042 | 36983 ft | 441 kts | 147° |
| 2026-04-24 13:12 | 34.90517 | 26.35902 | 36983 ft | 441 kts | 147° |
| 2026-04-24 13:12 | 34.85840 | 26.40748 | 36978 ft | 442 kts | 147° |
| 2026-04-24 13:13 | 34.81154 | 26.45594 | 36978 ft | 442 kts | 147° |
| 2026-04-24 13:13 | 34.76469 | 26.50430 | 36980 ft | 442 kts | 147° |
| 2026-04-24 13:14 | 34.71786 | 26.55266 | 36978 ft | 441 kts | 147° |
| 2026-04-24 13:14 | 34.67130 | 26.60062 | 36977 ft | 441 kts | 147° |
| 2026-04-24 13:15 | 34.62454 | 26.64887 | 36980 ft | 441 kts | 147° |
| 2026-04-24 13:15 | 34.57770 | 26.69700 | 36978 ft | 441 kts | 147° |
| 2026-04-24 13:16 | 34.53087 | 26.74493 | 36978 ft | 440 kts | 147° |
| 2026-04-24 13:16 | 34.48403 | 26.79291 | 36977 ft | 440 kts | 147° |
| 2026-04-24 13:17 | 34.43723 | 26.84087 | 36977 ft | 441 kts | 147° |
| 2026-04-24 13:17 | 34.39034 | 26.88882 | 36977 ft | 441 kts | 147° |
| 2026-04-24 13:18 | 34.34378 | 26.93632 | 36979 ft | 441 kts | 147° |
| 2026-04-24 13:18 | 34.29674 | 26.98417 | 36979 ft | 441 kts | 147° |
| 2026-04-24 13:19 | 34.24974 | 27.03183 | 36979 ft | 442 kts | 147° |
| 2026-04-24 13:19 | 34.20265 | 27.07971 | 36975 ft | 442 kts | 147° |
| 2026-04-24 13:20 | 34.15559 | 27.12751 | 36974 ft | 442 kts | 147° |
| 2026-04-24 13:20 | 34.10848 | 27.17518 | 36974 ft | 442 kts | 147° |
| 2026-04-24 13:21 | 34.06129 | 27.22274 | 36963 ft | 442 kts | 147° |
| 2026-04-24 13:21 | 34.01414 | 27.27025 | 36955 ft | 442 kts | 147° |
| 2026-04-24 13:22 | 33.96719 | 27.31753 | 36952 ft | 442 kts | 147° |
| 2026-04-24 13:22 | 33.91780 | 27.36069 | 36948 ft | 437 kts | 153° |
| 2026-04-24 13:23 | 33.86729 | 27.40131 | 36947 ft | 437 kts | 153° |
| 2026-04-24 13:23 | 33.81668 | 27.44198 | 36947 ft | 437 kts | 153° |
| 2026-04-24 13:24 | 33.76606 | 27.48267 | 36944 ft | 437 kts | 153° |
| 2026-04-24 13:24 | 33.71560 | 27.52338 | 36939 ft | 437 kts | 153° |
| 2026-04-24 13:25 | 33.66507 | 27.56385 | 36937 ft | 437 kts | 153° |
| 2026-04-24 13:25 | 33.61469 | 27.60407 | 36938 ft | 437 kts | 153° |
| 2026-04-24 13:26 | 33.56414 | 27.64447 | 36937 ft | 437 kts | 153° |
| 2026-04-24 13:26 | 33.51359 | 27.68473 | 36935 ft | 436 kts | 153° |
| 2026-04-24 13:27 | 33.46300 | 27.72504 | 36934 ft | 436 kts | 153° |
| 2026-04-24 13:27 | 33.41252 | 27.76529 | 36931 ft | 436 kts | 153° |
| 2026-04-24 13:28 | 33.36184 | 27.80559 | 36929 ft | 436 kts | 153° |
| 2026-04-24 13:28 | 33.31131 | 27.84571 | 36911 ft | 436 kts | 153° |
| 2026-04-24 13:29 | 33.26069 | 27.88574 | 36920 ft | 436 kts | 153° |
| 2026-04-24 13:29 | 33.21016 | 27.92568 | 36909 ft | 436 kts | 153° |
| 2026-04-24 13:30 | 33.17675 | 27.95217 | 36922 ft | 436 kts | 153° |
| 2026-04-24 13:30 | 33.11959 | 27.99733 | 36929 ft | 436 kts | 153° |
| 2026-04-24 13:31 | 33.06929 | 28.03691 | 36911 ft | 436 kts | 153° |
| 2026-04-24 13:31 | 33.01872 | 28.07669 | 36920 ft | 435 kts | 153° |
| 2026-04-24 13:32 | 32.96827 | 28.11637 | 36918 ft | 435 kts | 153° |
| 2026-04-24 13:32 | 32.91893 | 28.15522 | 36915 ft | 436 kts | 152° |
| 2026-04-24 13:33 | 32.87836 | 28.18705 | 36911 ft | 436 kts | 153° |
| 2026-04-24 13:33 | 32.83628 | 28.21989 | 36916 ft | 435 kts | 153° |
| 2026-04-24 13:34 | 32.78561 | 28.25944 | 36906 ft | 435 kts | 152° |
| 2026-04-24 13:34 | 32.73504 | 28.29896 | 36915 ft | 435 kts | 152° |
| 2026-04-24 13:35 | 32.68433 | 28.33854 | 36914 ft | 435 kts | 152° |
| 2026-04-24 13:35 | 32.63375 | 28.37794 | 36913 ft | 435 kts | 153° |
| 2026-04-24 13:36 | 32.58308 | 28.41732 | 36914 ft | 435 kts | 152° |
| 2026-04-24 13:36 | 32.53239 | 28.45661 | 36909 ft | 435 kts | 152° |
| 2026-04-24 13:37 | 32.48202 | 28.49568 | 36908 ft | 436 kts | 152° |
| 2026-04-24 13:37 | 32.43131 | 28.53503 | 36900 ft | 435 kts | 152° |
| 2026-04-24 13:38 | 32.38059 | 28.57425 | 36904 ft | 435 kts | 152° |
| 2026-04-24 13:38 | 32.32985 | 28.61350 | 36892 ft | 435 kts | 152° |
| 2026-04-24 13:39 | 32.27911 | 28.65265 | 36901 ft | 436 kts | 153° |
| 2026-04-24 13:39 | 32.22825 | 28.69172 | 36892 ft | 436 kts | 153° |
| 2026-04-24 13:40 | 32.17748 | 28.73081 | 36902 ft | 436 kts | 153° |
| 2026-04-24 13:40 | 32.12664 | 28.76991 | 36886 ft | 436 kts | 153° |
| 2026-04-24 13:41 | 32.10158 | 28.78914 | 36613 ft | 435 kts | 153° |
| 2026-04-24 13:41 | 32.07619 | 28.80860 | 35965 ft | 436 kts | 153° |
| 2026-04-24 13:41 | 32.05064 | 28.82813 | 35248 ft | 438 kts | 153° |
| 2026-04-24 13:41 | 32.02498 | 28.84774 | 34446 ft | 442 kts | 153° |
| 2026-04-24 13:42 | 31.99913 | 28.86749 | 33607 ft | 446 kts | 153° |
| 2026-04-24 13:42 | 31.97297 | 28.88744 | 32713 ft | 449 kts | 152° |
| 2026-04-24 13:42 | 31.94669 | 28.90750 | 31946 ft | 450 kts | 152° |
| 2026-04-24 13:42 | 31.92061 | 28.92748 | 31449 ft | 445 kts | 152° |
| 2026-04-24 13:43 | 31.89480 | 28.94727 | 30870 ft | 441 kts | 152° |
| 2026-04-24 13:43 | 31.86918 | 28.96687 | 30305 ft | 437 kts | 152° |
| 2026-04-24 13:43 | 31.84379 | 28.98627 | 29729 ft | 434 kts | 152° |
| 2026-04-24 13:43 | 31.81861 | 29.00551 | 29164 ft | 430 kts | 152° |
| 2026-04-24 13:44 | 31.79358 | 29.02458 | 28601 ft | 427 kts | 152° |
| 2026-04-24 13:44 | 31.76869 | 29.04349 | 28039 ft | 424 kts | 153° |
| 2026-04-24 13:44 | 31.74442 | 29.06319 | 27467 ft | 425 kts | 146° |
| 2026-04-24 13:44 | 31.72294 | 29.08711 | 26923 ft | 428 kts | 136° |
| 2026-04-24 13:45 | 31.70478 | 29.11494 | 26368 ft | 429 kts | 130° |
| 2026-04-24 13:45 | 31.68752 | 29.14338 | 25832 ft | 426 kts | 130° |
| 2026-04-24 13:45 | 31.67055 | 29.17124 | 25269 ft | 424 kts | 130° |
| 2026-04-24 13:45 | 31.65345 | 29.19925 | 24759 ft | 421 kts | 130° |
| 2026-04-24 13:46 | 31.63643 | 29.22700 | 24239 ft | 418 kts | 131° |
| 2026-04-24 13:46 | 31.61943 | 29.25458 | 23741 ft | 415 kts | 131° |
| 2026-04-24 13:46 | 31.60256 | 29.28193 | 23238 ft | 412 kts | 131° |
| 2026-04-24 13:46 | 31.58583 | 29.30912 | 22785 ft | 409 kts | 130° |
| 2026-04-24 13:47 | 31.56928 | 29.33608 | 22321 ft | 407 kts | 130° |
| 2026-04-24 13:47 | 31.55278 | 29.36295 | 21833 ft | 404 kts | 130° |
| 2026-04-24 13:47 | 31.53639 | 29.38957 | 21365 ft | 401 kts | 130° |
| 2026-04-24 13:47 | 31.52008 | 29.41598 | 20862 ft | 399 kts | 130° |
| 2026-04-24 13:48 | 31.50382 | 29.44226 | 20361 ft | 397 kts | 131° |
| 2026-04-24 13:48 | 31.48763 | 29.46839 | 19848 ft | 395 kts | 130° |
| 2026-04-24 13:48 | 31.47156 | 29.49437 | 19328 ft | 393 kts | 130° |
| 2026-04-24 13:48 | 31.45556 | 29.52023 | 18801 ft | 391 kts | 130° |
| 2026-04-24 13:49 | 31.43968 | 29.54586 | 18262 ft | 388 kts | 130° |
| 2026-04-24 13:49 | 31.42384 | 29.57137 | 17739 ft | 386 kts | 130° |
| 2026-04-24 13:49 | 31.40811 | 29.59676 | 17201 ft | 383 kts | 130° |
| 2026-04-24 13:49 | 31.39252 | 29.62195 | 16675 ft | 381 kts | 130° |
| 2026-04-24 13:50 | 31.37706 | 29.64692 | 16144 ft | 377 kts | 129° |
| 2026-04-24 13:50 | 31.36176 | 29.67163 | 15620 ft | 374 kts | 129° |
| 2026-04-24 13:50 | 31.34645 | 29.69623 | 15090 ft | 372 kts | 129° |
| 2026-04-24 13:50 | 31.33127 | 29.72059 | 14570 ft | 368 kts | 129° |
| 2026-04-24 13:51 | 31.31622 | 29.74467 | 14048 ft | 365 kts | 129° |
| 2026-04-24 13:51 | 31.30132 | 29.76851 | 13536 ft | 362 kts | 129° |
| 2026-04-24 13:51 | 31.28653 | 29.79225 | 13009 ft | 359 kts | 128° |
| 2026-04-24 13:51 | 31.27191 | 29.81574 | 12514 ft | 356 kts | 128° |
| 2026-04-24 13:52 | 31.25738 | 29.83910 | 12005 ft | 353 kts | 128° |
| 2026-04-24 13:52 | 31.24299 | 29.86217 | 11507 ft | 350 kts | 128° |
| 2026-04-24 13:52 | 31.22889 | 29.88471 | 11024 ft | 347 kts | 127° |
| 2026-04-24 13:52 | 31.21469 | 29.90737 | 10532 ft | 345 kts | 128° |
| 2026-04-24 13:53 | 31.19806 | 29.92712 | 10182 ft | 337 kts | 144° |
| 2026-04-24 13:53 | 31.17784 | 29.93965 | 10068 ft | 323 kts | 161° |
| 2026-04-24 13:53 | 31.15632 | 29.94459 | 9928 ft | 311 kts | 178° |
| 2026-04-24 13:53 | 31.13515 | 29.94287 | 9772 ft | 301 kts | 187° |
| 2026-04-24 13:54 | 31.11444 | 29.93970 | 9390 ft | 301 kts | 187° |
| 2026-04-24 13:54 | 31.09373 | 29.93652 | 8946 ft | 303 kts | 187° |
| 2026-04-24 13:54 | 31.07290 | 29.93335 | 8638 ft | 297 kts | 187° |
| 2026-04-24 13:54 | 31.05252 | 29.93024 | 8069 ft | 293 kts | 187° |
| 2026-04-24 13:55 | 31.03297 | 29.92725 | 7932 ft | 273 kts | 187° |
| 2026-04-24 13:55 | 31.01499 | 29.92450 | 7805 ft | 256 kts | 186° |
| 2026-04-24 13:55 | 30.99801 | 29.92191 | 7639 ft | 239 kts | 186° |
| 2026-04-24 13:55 | 30.98174 | 29.91941 | 7249 ft | 234 kts | 186° |
| 2026-04-24 13:56 | 30.96571 | 29.91693 | 6783 ft | 231 kts | 186° |
| 2026-04-24 13:56 | 30.94980 | 29.91448 | 6315 ft | 229 kts | 186° |
| 2026-04-24 13:56 | 30.93400 | 29.91206 | 5801 ft | 230 kts | 186° |
| 2026-04-24 13:56 | 30.91792 | 29.90964 | 5183 ft | 235 kts | 186° |
| 2026-04-24 13:57 | 30.90157 | 29.90719 | 4553 ft | 240 kts | 186° |
| 2026-04-24 13:57 | 30.88488 | 29.90468 | 3984 ft | 242 kts | 185° |
| 2026-04-24 13:57 | 30.86855 | 29.90218 | 3753 ft | 231 kts | 185° |
| 2026-04-24 13:57 | 30.85288 | 29.89979 | 3620 ft | 223 kts | 185° |
| 2026-04-24 13:58 | 30.83754 | 29.89746 | 3509 ft | 222 kts | 185° |
| 2026-04-24 13:58 | 30.82238 | 29.89514 | 3406 ft | 215 kts | 185° |
| 2026-04-24 13:58 | 30.80817 | 29.89144 | 3315 ft | 207 kts | 201° |
| 2026-04-24 13:58 | 30.79624 | 29.88275 | 3233 ft | 206 kts | 221° |
| 2026-04-24 13:59 | 30.78697 | 29.86978 | 2821 ft | 211 kts | 233° |
| 2026-04-24 13:59 | 30.77819 | 29.85600 | 2458 ft | 212 kts | 233° |
| 2026-04-24 13:59 | 30.77243 | 29.84049 | 2126 ft | 210 kts | 266° |
| 2026-04-24 13:59 | 30.77511 | 29.82486 | 2002 ft | 187 kts | 301° |
| 2026-04-24 14:00 | 30.78332 | 29.81398 | 2007 ft | 175 kts | 327° |
| 2026-04-24 14:00 | 30.79299 | 29.80556 | 2005 ft | 173 kts | 327° |
| 2026-04-24 14:00 | 30.80254 | 29.79720 | 2008 ft | 168 kts | 327° |
| 2026-04-24 14:00 | 30.81148 | 29.78937 | 1996 ft | 155 kts | 327° |
| 2026-04-24 14:01 | 30.82000 | 29.78192 | 2003 ft | 152 kts | 327° |
| 2026-04-24 14:01 | 30.82842 | 29.77455 | 1959 ft | 151 kts | 327° |
| 2026-04-24 14:01 | 30.83678 | 29.76723 | 1814 ft | 150 kts | 327° |
| 2026-04-24 14:01 | 30.84511 | 29.75993 | 1640 ft | 149 kts | 327° |
| 2026-04-24 14:02 | 30.85338 | 29.75267 | 1456 ft | 149 kts | 327° |
| 2026-04-24 14:02 | 30.86166 | 29.74541 | 1261 ft | 148 kts | 327° |
| 2026-04-24 14:02 | 30.86987 | 29.73822 | 1058 ft | 148 kts | 327° |
| 2026-04-24 14:02 | 30.87803 | 29.73101 | 865 ft | 147 kts | 326° |
| 2026-04-24 14:03 | 30.88615 | 29.72380 | 666 ft | 147 kts | 327° |
| 2026-04-24 14:03 | 30.89441 | 29.71690 | 431 ft | 146 kts | 326° |
| 2026-04-24 14:03 | 30.90233 | 29.70955 | 291 ft | 145 kts | 325° |
| 2026-04-24 14:03 | 30.91023 | 29.70251 | 188 ft | 138 kts | 327° |
| 2026-04-24 14:04 | 30.91684 | 29.69708 | 193 ft | 92 kts | 323° |
| 2026-04-24 14:04 | 30.92058 | 29.69378 | 194 ft | 43 kts | 323° |
| 2026-04-24 14:04 | 30.92186 | 29.69299 | 185 ft | 9 kts | 14° |
| 2026-04-24 14:04 | 30.92235 | 29.69360 | 196 ft | 12 kts | 53° |
| 2026-04-24 14:05 | 30.92289 | 29.69443 | 193 ft | 14 kts | 53° |
| 2026-04-24 14:05 | 30.92358 | 29.69552 | 186 ft | 19 kts | 53° |
| 2026-04-24 14:05 | 30.92445 | 29.69689 | 184 ft | 20 kts | 52° |
| 2026-04-24 14:05 | 30.92537 | 29.69751 | 183 ft | 15 kts | 337° |
| 2026-04-24 14:06 | 30.92641 | 29.69757 | 187 ft | 16 kts | 22° |
| 2026-04-24 14:06 | 30.92703 | 29.69807 | 199 ft | 12 kts | 57° |
| 2026-04-24 14:06 | 30.92718 | 29.69834 | 188 ft | 2 kts | 56° |
| 2026-04-24 14:06 | 30.92728 | 29.69851 | 185 ft | 4 kts | 57° |
| 2026-04-24 14:07 | 30.92718 | 29.69894 | 183 ft | 0 kts | 139° |